Terminal Aerodrome Forecast
Issued by NWS

Home | Current Version | Previous Version | Text Only | Print | Product List | Glossary On
Versions: 1 2 3 4 5 6 7 8 9 10 11 12 13 14 15 16 17 18 19 20 21 22 23 24 25 26 27 28 29 30 31
000
FTUS41 KBOX 292324
TAFHYA
TAF
KHYA 292324Z 3000/3024 23010KT P6SM BKN250
     FM300300 24007KT P6SM SCT250
     FM300800 23008KT 3SM BR SCT003 SCT250
     FM300900 23008KT 3SM BR BKN003
     FM301200 25012KT 3SM BR BKN003
     FM301300 25012KT P6SM BKN250
     FM301700 23015G25KT P6SM BKN050 BKN200
     FM302300 23014G29KT P6SM BKN010 BKN050=

USA.gov is the U.S. government's official web portal to all federal, state and local government web resources and services.